Terminal Aerodrome Forecast
Issued by NWS Upton, NY

Home | Current Version | Previous Version | Text Only | Print | Product List | Glossary On
Versions: 1 2 3 4 5 6 7 8 9 10 11 12 13 14 15 16 17 18 19 20 21 22 23 24 25 26 27 28 29 30
000
FTUS41 KOKX 161400 AAE
TAFLGA
TAF AMD
KLGA 161435Z 1615/1712 01007KT 6SM -SHRA FEW008 BKN025 OVC050
      TEMPO 1615/1616 4SM -SHRA BKN015
     FM161600 01008KT P6SM FEW025 BKN035 BKN100
     FM162000 29008KT P6SM SCT050 SCT150
     FM170200 33007KT P6SM FEW050 SCT250
     FM170500 02010KT P6SM SKC=

USA.gov is the U.S. government's official web portal to all federal, state and local government web resources and services.